createdAt,value
2017-08-02T00:00:14.306Z,48.70
2017-08-02T00:02:41.769Z,48.80
2017-08-02T00:05:09.251Z,48.90
2017-08-02T00:07:36.702Z,48.80
2017-08-02T00:10:04.170Z,48.70
2017-08-02T00:12:32.542Z,48.80
2017-08-02T00:15:00.018Z,48.80
2017-08-02T00:17:27.475Z,48.80
2017-08-02T00:19:55.002Z,48.80
2017-08-02T00:22:22.478Z,48.80
2017-08-02T00:24:49.940Z,48.70
2017-08-02T00:27:17.393Z,48.70
2017-08-02T00:29:44.860Z,48.60
2017-08-02T00:32:12.389Z,48.70
2017-08-02T00:34:39.848Z,48.60
2017-08-02T00:37:07.318Z,48.60
2017-08-02T00:39:34.778Z,48.70
2017-08-02T00:42:02.237Z,48.60
2017-08-02T00:44:29.697Z,48.60
2017-08-02T00:46:57.173Z,48.70
2017-08-02T00:49:25.449Z,48.60
2017-08-02T00:51:52.908Z,48.60
2017-08-02T00:54:20.378Z,48.70
2017-08-02T00:56:47.863Z,48.70
2017-08-02T00:59:15.421Z,48.60
2017-08-02T01:01:42.881Z,48.60
2017-08-02T01:04:10.346Z,48.60
2017-08-02T01:06:37.797Z,48.60
2017-08-02T01:09:05.278Z,48.60
2017-08-02T01:11:32.743Z,48.60
2017-08-02T01:14:00.219Z,48.50
2017-08-02T01:16:27.673Z,48.40
2017-08-02T01:18:55.142Z,48.50
2017-08-02T01:21:22.607Z,48.60
2017-08-02T01:23:50.078Z,48.50
2017-08-02T01:26:17.581Z,48.40
2017-08-02T01:28:45.044Z,48.40
2017-08-02T01:31:12.517Z,48.40
2017-08-02T01:33:39.967Z,48.40
2017-08-02T01:36:07.453Z,48.40
2017-08-02T01:38:34.922Z,48.30
2017-08-02T01:41:02.403Z,48.40
2017-08-02T01:43:29.878Z,48.30
2017-08-02T01:45:57.330Z,48.40
2017-08-02T01:48:24.799Z,48.30
2017-08-02T01:50:52.255Z,48.30
2017-08-02T01:53:19.725Z,48.20
2017-08-02T01:55:47.183Z,48.20
2017-08-02T01:58:14.639Z,48.30
2017-08-02T02:00:42.102Z,48.50
2017-08-02T02:03:09.590Z,48.20
2017-08-02T02:05:38.552Z,48.90
2017-08-02T02:08:06.033Z,48.30
2017-08-02T02:10:33.518Z,48.30
2017-08-02T02:13:00.978Z,48.20
2017-08-02T02:15:28.454Z,48.20
2017-08-02T02:17:56.230Z,48.20
2017-08-02T02:20:23.696Z,48.10
2017-08-02T02:22:51.150Z,48.20
2017-08-02T02:25:18.604Z,48.20
2017-08-02T02:27:46.102Z,48.10
2017-08-02T02:30:13.565Z,48.10
2017-08-02T02:32:41.031Z,48.10
2017-08-02T02:35:08.494Z,48.10
2017-08-02T02:37:35.968Z,48.10
2017-08-02T02:40:03.438Z,48.10
2017-08-02T02:42:30.984Z,48.10
2017-08-02T02:44:58.444Z,48.10
2017-08-02T02:47:25.940Z,48.10
2017-08-02T02:49:53.407Z,48.00
2017-08-02T02:52:20.858Z,48.10
2017-08-02T02:54:48.378Z,48.10
2017-08-02T02:57:15.878Z,48.10
2017-08-02T02:59:43.345Z,48.00
2017-08-02T03:02:10.890Z,48.10
2017-08-02T03:04:38.367Z,48.00
2017-08-02T03:07:05.834Z,48.10
2017-08-02T03:09:33.301Z,48.00
2017-08-02T03:12:00.767Z,48.00
2017-08-02T03:14:28.234Z,48.00
2017-08-02T03:16:55.745Z,47.90
2017-08-02T03:19:23.224Z,48.00
2017-08-02T03:21:50.719Z,48.10
2017-08-02T03:24:18.202Z,48.00
2017-08-02T03:26:45.681Z,48.00
2017-08-02T03:29:13.153Z,47.90
2017-08-02T03:31:40.629Z,48.00
2017-08-02T03:34:08.155Z,47.90
2017-08-02T03:36:35.634Z,47.90
2017-08-02T03:39:03.156Z,48.00
2017-08-02T03:41:30.640Z,47.90
2017-08-02T03:43:58.116Z,48.10
2017-08-02T03:46:26.410Z,48.00
2017-08-02T03:48:54.643Z,48.00
2017-08-02T03:51:22.106Z,48.00
2017-08-02T03:53:49.599Z,48.10
2017-08-02T03:56:17.836Z,48.10
2017-08-02T03:58:45.295Z,48.00
2017-08-02T04:01:12.766Z,48.00
2017-08-02T04:03:40.259Z,48.00
2017-08-02T04:06:07.746Z,48.00
2017-08-02T04:08:35.278Z,48.00
2017-08-02T04:11:02.788Z,47.90
2017-08-02T04:13:30.267Z,47.90
2017-08-02T04:15:57.718Z,48.00
2017-08-02T04:18:25.205Z,47.90
2017-08-02T04:20:52.683Z,47.90
2017-08-02T04:23:20.137Z,48.00
2017-08-02T04:25:47.617Z,47.90
2017-08-02T04:28:15.101Z,48.60
2017-08-02T04:30:42.591Z,47.80
2017-08-02T04:33:10.066Z,48.00
2017-08-02T04:35:37.537Z,48.00
2017-08-02T04:38:05.029Z,48.00
2017-08-02T04:40:32.524Z,48.10
2017-08-02T04:42:59.993Z,48.00
2017-08-02T04:45:27.474Z,48.00
2017-08-02T04:47:54.967Z,48.10
2017-08-02T04:50:22.466Z,48.00
2017-08-02T04:52:49.965Z,48.10
2017-08-02T04:55:17.433Z,48.00
2017-08-02T04:57:44.911Z,48.00
2017-08-02T05:00:12.381Z,48.00
2017-08-02T05:02:39.847Z,48.00
2017-08-02T05:05:07.313Z,48.10
2017-08-02T05:07:34.817Z,48.10
2017-08-02T05:10:02.318Z,48.00
2017-08-02T05:12:29.793Z,48.00
2017-08-02T05:14:57.265Z,48.00
2017-08-02T05:17:24.737Z,48.00
2017-08-02T05:19:52.214Z,48.00
2017-08-02T05:22:19.673Z,48.00
2017-08-02T05:24:47.152Z,48.00
2017-08-02T05:27:14.616Z,48.00
2017-08-02T05:29:42.100Z,48.00
2017-08-02T05:32:09.565Z,47.90
2017-08-02T05:34:37.042Z,48.00
2017-08-02T05:37:04.520Z,48.10
2017-08-02T05:39:31.999Z,48.00
2017-08-02T05:41:59.469Z,48.10
2017-08-02T05:44:26.938Z,48.00
2017-08-02T05:46:54.410Z,48.00
2017-08-02T05:49:21.887Z,48.00
2017-08-02T05:51:49.343Z,48.00
2017-08-02T05:54:16.823Z,48.10
2017-08-02T05:56:44.278Z,47.90
2017-08-02T05:59:11.766Z,48.00
2017-08-02T06:01:39.234Z,48.00
2017-08-02T06:04:06.695Z,48.00
2017-08-02T06:06:34.198Z,47.90
2017-08-02T06:09:01.662Z,48.00
2017-08-02T06:11:29.159Z,47.80
2017-08-02T06:13:56.625Z,47.90
2017-08-02T06:16:24.099Z,48.00
2017-08-02T06:18:51.556Z,47.80
2017-08-02T06:21:19.023Z,47.70
2017-08-02T06:23:46.474Z,47.80
2017-08-02T06:26:13.920Z,47.80
2017-08-02T06:28:41.415Z,47.60
2017-08-02T06:31:08.879Z,47.80
2017-08-02T06:33:37.166Z,47.80
2017-08-02T06:36:04.611Z,47.80
2017-08-02T06:38:32.099Z,47.70
2017-08-02T06:40:59.575Z,47.70
2017-08-02T06:43:27.061Z,47.70
2017-08-02T06:45:54.524Z,47.60
2017-08-02T06:48:21.995Z,47.60
2017-08-02T06:50:49.461Z,47.70
2017-08-02T06:53:16.994Z,47.60
2017-08-02T06:55:44.445Z,47.60
2017-08-02T06:58:11.934Z,47.80
2017-08-02T07:00:39.394Z,47.80
2017-08-02T07:03:06.863Z,47.80
2017-08-02T07:05:34.338Z,47.80
2017-08-02T07:08:01.805Z,47.70
2017-08-02T07:10:29.281Z,47.60
2017-08-02T07:12:56.739Z,47.70
2017-08-02T07:15:24.216Z,47.50
2017-08-02T07:17:51.664Z,47.80
2017-08-02T07:20:19.129Z,47.60
2017-08-02T07:22:46.590Z,47.40
2017-08-02T07:25:14.050Z,47.50
2017-08-02T07:27:41.510Z,47.40
2017-08-02T07:30:08.980Z,47.50
2017-08-02T07:32:36.452Z,47.40
2017-08-02T07:35:03.926Z,47.40
2017-08-02T07:37:31.387Z,47.60
2017-08-02T07:39:58.837Z,47.40
2017-08-02T07:42:27.074Z,47.40
2017-08-02T07:44:54.521Z,47.40
2017-08-02T07:47:21.991Z,47.70
2017-08-02T07:49:49.473Z,47.40
2017-08-02T07:52:16.945Z,47.40
2017-08-02T07:54:44.414Z,47.40
2017-08-02T07:57:11.890Z,47.40
2017-08-02T07:59:39.353Z,48.00
2017-08-02T08:02:06.820Z,47.60
2017-08-02T08:04:34.284Z,48.50
2017-08-02T08:07:01.756Z,47.90
2017-08-02T08:09:29.226Z,48.10
2017-08-02T08:11:56.694Z,47.90
2017-08-02T08:14:24.943Z,48.00
2017-08-02T08:16:52.396Z,48.00
2017-08-02T08:19:19.875Z,47.50
2017-08-02T08:21:47.337Z,48.00
2017-08-02T08:24:14.811Z,48.30
2017-08-02T08:26:42.276Z,48.30
2017-08-02T08:29:09.752Z,48.30
2017-08-02T08:31:37.213Z,48.60
2017-08-02T08:34:04.697Z,48.70
2017-08-02T08:36:32.168Z,48.90
2017-08-02T08:38:59.621Z,48.80
2017-08-02T08:41:27.086Z,49.00
2017-08-02T08:43:54.569Z,48.90
2017-08-02T08:46:22.046Z,48.90
2017-08-02T08:48:49.506Z,48.90
2017-08-02T08:51:16.977Z,49.00
2017-08-02T08:53:44.442Z,49.10
2017-08-02T08:56:11.910Z,49.10
2017-08-02T08:58:39.381Z,49.00
2017-08-02T09:01:06.852Z,49.10
2017-08-02T09:03:34.307Z,48.90
2017-08-02T09:06:02.550Z,48.60
2017-08-02T09:08:30.018Z,48.80
2017-08-02T09:10:57.489Z,48.60
2017-08-02T09:13:24.953Z,48.30
2017-08-02T09:15:52.446Z,47.90
2017-08-02T09:18:19.905Z,47.80
2017-08-02T09:20:47.365Z,47.90
2017-08-02T09:23:14.839Z,47.80
2017-08-02T09:25:42.302Z,47.70
2017-08-02T09:28:09.780Z,47.50
2017-08-02T09:30:37.246Z,47.50
2017-08-02T09:33:04.719Z,47.50
2017-08-02T09:35:32.210Z,47.60
2017-08-02T09:37:59.693Z,47.60
2017-08-02T09:40:27.152Z,47.70
2017-08-02T09:42:54.623Z,47.70
2017-08-02T09:45:22.085Z,47.80
2017-08-02T09:47:49.549Z,47.80
2017-08-02T09:50:17.022Z,47.60
2017-08-02T09:52:44.478Z,47.60
2017-08-02T09:55:11.940Z,47.50
2017-08-02T09:57:40.185Z,47.00
2017-08-02T10:00:07.697Z,47.00
2017-08-02T10:02:35.166Z,46.90
2017-08-02T10:05:02.668Z,46.50
2017-08-02T10:07:30.160Z,46.10
2017-08-02T10:09:57.664Z,46.00
2017-08-02T10:12:26.580Z,46.10
2017-08-02T10:14:54.113Z,46.30
2017-08-02T10:17:21.594Z,46.40
2017-08-02T10:19:49.094Z,46.40
2017-08-02T10:22:16.585Z,46.30
2017-08-02T10:24:44.115Z,46.10
2017-08-02T10:27:11.598Z,46.00
2017-08-02T10:29:39.083Z,46.20
2017-08-02T10:32:06.556Z,45.90
2017-08-02T10:34:34.033Z,46.20
2017-08-02T10:37:01.495Z,45.60
2017-08-02T10:39:29.728Z,44.40
2017-08-02T10:41:57.192Z,44.40
2017-08-02T10:44:24.673Z,43.90
2017-08-02T10:46:52.162Z,43.90
2017-08-02T10:49:19.633Z,43.70
2017-08-02T10:51:47.096Z,43.90
2017-08-02T10:54:14.565Z,43.70
2017-08-02T10:56:42.032Z,43.50
2017-08-02T10:59:09.499Z,43.20
2017-08-02T11:01:36.973Z,43.00
2017-08-02T11:04:04.482Z,43.20
2017-08-02T11:06:31.942Z,43.40
2017-08-02T11:08:59.454Z,43.60
2017-08-02T11:11:26.925Z,43.80
2017-08-02T11:13:54.385Z,44.00
2017-08-02T11:16:21.889Z,44.10
2017-08-02T11:18:49.415Z,43.60
2017-08-02T11:21:16.957Z,43.70
2017-08-02T11:23:44.443Z,43.60
2017-08-02T11:26:11.946Z,43.50
2017-08-02T11:28:39.420Z,43.50
2017-08-02T11:31:06.931Z,43.30
2017-08-02T11:33:34.443Z,43.30
2017-08-02T11:36:01.925Z,42.80
2017-08-02T11:38:29.401Z,42.60
2017-08-02T11:40:56.898Z,42.60
2017-08-02T11:43:24.427Z,42.70
2017-08-02T11:45:51.906Z,42.90
2017-08-02T11:48:19.400Z,42.60
2017-08-02T11:50:46.884Z,42.70
2017-08-02T11:53:14.386Z,42.60
2017-08-02T11:55:41.885Z,42.30
2017-08-02T11:58:09.343Z,41.40
2017-08-02T12:00:36.804Z,41.40
2017-08-02T12:03:04.276Z,41.40
2017-08-02T12:05:31.741Z,41.30
2017-08-02T12:07:59.210Z,41.00
2017-08-02T12:10:26.715Z,40.80
2017-08-02T12:12:54.182Z,40.70
2017-08-02T12:15:21.653Z,40.50
2017-08-02T12:17:49.147Z,40.40
2017-08-02T12:20:16.605Z,40.20
2017-08-02T12:22:44.079Z,40.30
2017-08-02T12:25:11.553Z,40.30
2017-08-02T12:27:39.010Z,40.20
2017-08-02T12:30:06.502Z,40.00
2017-08-02T12:32:33.977Z,40.20
2017-08-02T12:35:01.439Z,40.00
2017-08-02T12:37:28.922Z,40.20
2017-08-02T12:39:56.416Z,40.40
2017-08-02T12:42:23.861Z,40.20
2017-08-02T12:44:51.338Z,40.30
2017-08-02T12:47:18.788Z,40.40
2017-08-02T12:49:46.238Z,40.40
2017-08-02T12:52:13.708Z,40.80
2017-08-02T12:54:41.189Z,40.70
2017-08-02T12:57:08.673Z,40.80
2017-08-02T12:59:36.121Z,40.70
2017-08-02T13:02:03.600Z,40.90
2017-08-02T13:04:31.067Z,40.80
2017-08-02T13:06:58.550Z,40.90
2017-08-02T13:09:26.008Z,41.00
2017-08-02T13:11:53.488Z,41.80
2017-08-02T13:14:20.946Z,40.90
2017-08-02T13:16:48.413Z,40.80
2017-08-02T13:19:15.879Z,40.80
2017-08-02T13:21:43.350Z,40.90
2017-08-02T13:24:10.812Z,40.90
2017-08-02T13:26:38.270Z,41.20
2017-08-02T13:29:05.747Z,41.10
2017-08-02T13:31:33.239Z,41.20
2017-08-02T13:34:00.715Z,40.90
2017-08-02T13:36:28.187Z,40.70
2017-08-02T13:38:55.661Z,40.70
2017-08-02T13:41:23.120Z,40.60
2017-08-02T13:43:50.601Z,40.60
2017-08-02T13:46:18.128Z,40.40
2017-08-02T13:48:45.649Z,40.40
2017-08-02T13:51:13.118Z,40.60
2017-08-02T13:53:40.622Z,40.70
2017-08-02T13:56:08.122Z,40.80
2017-08-02T13:58:35.603Z,40.70
2017-08-02T14:01:03.111Z,40.70
2017-08-02T14:03:30.573Z,40.70
2017-08-02T14:05:58.038Z,41.40
2017-08-02T14:08:25.494Z,40.80
2017-08-02T14:10:52.965Z,40.80
2017-08-02T14:13:20.439Z,40.60
2017-08-02T14:15:47.914Z,40.60
2017-08-02T14:18:15.387Z,40.60
2017-08-02T14:20:42.840Z,40.80
2017-08-02T14:23:10.309Z,40.90
2017-08-02T14:25:40.596Z,40.90
2017-08-02T14:28:08.085Z,41.10
2017-08-02T14:30:35.573Z,41.20
2017-08-02T14:33:03.070Z,41.40
2017-08-02T14:35:30.551Z,41.60
2017-08-02T14:37:58.076Z,41.70
2017-08-02T14:40:25.541Z,41.70
2017-08-02T14:42:53.033Z,41.70
2017-08-02T14:45:20.488Z,41.80
2017-08-02T14:47:47.933Z,41.80
2017-08-02T14:50:15.588Z,41.70
2017-08-02T14:52:43.070Z,41.70
2017-08-02T14:55:10.537Z,41.80
2017-08-02T14:57:38.042Z,41.80
2017-08-02T15:00:05.516Z,41.80
2017-08-02T15:02:33.026Z,41.80
2017-08-02T15:05:00.564Z,41.80
2017-08-02T15:07:28.030Z,41.60
2017-08-02T15:09:55.511Z,41.70
2017-08-02T15:12:22.974Z,41.80
2017-08-02T15:14:50.469Z,41.70
2017-08-02T15:17:17.941Z,41.80
2017-08-02T15:19:45.425Z,42.00
2017-08-02T15:22:12.884Z,42.00
2017-08-02T15:24:40.368Z,42.00
2017-08-02T15:27:07.853Z,42.00
2017-08-02T15:29:35.317Z,42.10
2017-08-02T15:32:02.794Z,42.00
2017-08-02T15:34:30.246Z,42.10
2017-08-02T15:36:57.707Z,42.20
2017-08-02T15:39:25.181Z,42.20
2017-08-02T15:41:52.659Z,42.30
2017-08-02T15:44:20.125Z,42.30
2017-08-02T15:46:47.618Z,42.30
2017-08-02T15:49:15.072Z,42.40
2017-08-02T15:51:42.542Z,42.50
2017-08-02T15:54:10.005Z,42.50
2017-08-02T15:56:37.464Z,42.50
2017-08-02T15:59:04.943Z,42.60
2017-08-02T16:01:32.410Z,42.60
2017-08-02T16:03:59.883Z,42.60
2017-08-02T16:06:27.343Z,42.70
2017-08-02T16:08:54.831Z,42.70
2017-08-02T16:11:22.298Z,42.80
2017-08-02T16:13:49.786Z,42.80
2017-08-02T16:16:17.260Z,42.80
2017-08-02T16:18:44.800Z,42.80
2017-08-02T16:21:12.271Z,42.80
2017-08-02T16:23:39.752Z,42.80
2017-08-02T16:26:07.225Z,42.80
2017-08-02T16:28:34.716Z,42.90
2017-08-02T16:31:02.189Z,43.00
2017-08-02T16:33:29.669Z,43.00
2017-08-02T16:35:57.152Z,42.90
2017-08-02T16:38:24.638Z,43.00
2017-08-02T16:40:52.106Z,43.00
2017-08-02T16:43:19.590Z,43.10
2017-08-02T16:45:47.069Z,43.20
2017-08-02T16:48:14.530Z,43.20
2017-08-02T16:50:42.015Z,43.20
2017-08-02T16:53:09.486Z,43.30
2017-08-02T16:55:36.981Z,43.40
2017-08-02T16:58:04.463Z,43.40
2017-08-02T17:00:31.968Z,43.40
2017-08-02T17:02:59.434Z,43.40
2017-08-02T17:05:26.919Z,43.40
2017-08-02T17:07:54.388Z,43.50
2017-08-02T17:10:21.881Z,43.40
2017-08-02T17:12:49.350Z,43.50
2017-08-02T17:15:16.826Z,43.50
2017-08-02T17:17:44.305Z,43.50
2017-08-02T17:20:11.761Z,43.60
2017-08-02T17:22:39.220Z,44.40
2017-08-02T17:25:06.686Z,43.80
2017-08-02T17:27:34.172Z,43.90
2017-08-02T17:30:01.615Z,43.90
2017-08-02T17:32:29.097Z,44.00
2017-08-02T17:34:56.565Z,43.90
2017-08-02T17:37:24.034Z,44.00
2017-08-02T17:39:51.510Z,44.10
2017-08-02T17:42:18.994Z,44.10
2017-08-02T17:44:46.444Z,44.20
2017-08-02T17:47:13.912Z,42.90
2017-08-02T17:49:41.385Z,36.20
2017-08-02T17:52:08.846Z,36.50
2017-08-02T17:54:36.321Z,35.80
2017-08-02T17:57:03.782Z,36.50
2017-08-02T17:59:31.245Z,35.40
2017-08-02T18:01:58.710Z,36.20
2017-08-02T18:04:26.169Z,35.90
2017-08-02T18:06:53.672Z,36.40
2017-08-02T18:09:21.141Z,36.10
2017-08-02T18:11:48.601Z,35.90
2017-08-02T18:14:16.041Z,36.00
2017-08-02T18:16:43.506Z,36.30
2017-08-02T18:19:10.957Z,36.50
2017-08-02T18:21:38.420Z,37.20
2017-08-02T18:24:05.877Z,37.80
2017-08-02T18:26:33.324Z,38.30
2017-08-02T18:29:00.783Z,39.10
2017-08-02T18:31:28.271Z,39.10
2017-08-02T18:33:55.722Z,39.40
2017-08-02T18:36:23.170Z,39.50
2017-08-02T18:38:50.656Z,39.10
2017-08-02T18:41:18.100Z,39.60
2017-08-02T18:43:45.571Z,40.60
2017-08-02T18:46:13.044Z,40.20
2017-08-02T18:48:40.519Z,39.80
2017-08-02T18:51:07.969Z,39.40
2017-08-02T18:53:35.457Z,39.30
2017-08-02T18:56:02.918Z,39.30
2017-08-02T18:58:30.387Z,39.20
2017-08-02T19:00:57.859Z,39.30
2017-08-02T19:03:25.314Z,39.30
2017-08-02T19:05:52.783Z,39.40
2017-08-02T19:08:20.232Z,39.50
2017-08-02T19:10:47.705Z,39.40
2017-08-02T19:13:15.190Z,39.40
2017-08-02T19:15:42.667Z,39.40
2017-08-02T19:18:10.129Z,39.40
2017-08-02T19:20:37.611Z,39.40
2017-08-02T19:23:05.069Z,39.40
2017-08-02T19:25:32.535Z,39.40
2017-08-02T19:27:59.992Z,39.40
2017-08-02T19:30:27.465Z,39.40
2017-08-02T19:32:54.928Z,39.40
2017-08-02T19:35:22.388Z,39.40
2017-08-02T19:37:49.880Z,39.30
2017-08-02T19:40:17.375Z,39.30
2017-08-02T19:42:44.850Z,39.30
2017-08-02T19:45:12.308Z,39.30
2017-08-02T19:47:39.775Z,39.30
2017-08-02T19:50:07.239Z,39.20
2017-08-02T19:52:34.729Z,39.30
2017-08-02T19:55:02.186Z,39.40
2017-08-02T19:57:29.723Z,39.40
2017-08-02T19:59:57.173Z,39.30
2017-08-02T20:02:24.627Z,39.40
2017-08-02T20:04:52.109Z,39.40
2017-08-02T20:07:19.566Z,39.50
2017-08-02T20:09:47.084Z,39.50
2017-08-02T20:12:14.545Z,39.60
2017-08-02T20:14:42.021Z,39.70
2017-08-02T20:17:09.479Z,39.70
2017-08-02T20:19:36.975Z,39.70
2017-08-02T20:22:04.443Z,39.50
2017-08-02T20:24:31.921Z,39.50
2017-08-02T20:26:59.375Z,39.60
2017-08-02T20:29:26.819Z,39.60
2017-08-02T20:31:54.293Z,39.60
2017-08-02T20:34:21.749Z,39.60
2017-08-02T20:36:49.269Z,39.60
2017-08-02T20:39:16.728Z,39.60
2017-08-02T20:41:44.197Z,39.70
2017-08-02T20:44:11.653Z,39.60
2017-08-02T20:46:39.124Z,39.70
2017-08-02T20:49:06.580Z,39.70
2017-08-02T20:51:34.088Z,39.70
2017-08-02T20:54:01.551Z,39.80
2017-08-02T20:56:29.022Z,39.80
2017-08-02T20:58:56.488Z,39.90
2017-08-02T21:01:23.953Z,39.90
2017-08-02T21:03:51.406Z,39.90
2017-08-02T21:06:18.863Z,40.00
2017-08-02T21:08:46.342Z,40.10
2017-08-02T21:11:13.802Z,40.20
2017-08-02T21:13:41.274Z,40.30
2017-08-02T21:16:08.746Z,40.40
2017-08-02T21:18:36.218Z,40.80
2017-08-02T21:21:03.696Z,41.10
2017-08-02T21:23:31.184Z,44.10
2017-08-02T21:25:58.643Z,47.00
2017-08-02T21:28:26.129Z,48.30
2017-08-02T21:30:53.579Z,49.80
2017-08-02T21:33:21.034Z,49.90
2017-08-02T21:35:48.546Z,50.60
2017-08-02T21:38:16.028Z,50.70
2017-08-02T21:40:43.525Z,50.40
2017-08-02T21:43:10.987Z,51.60
2017-08-02T21:45:38.455Z,52.00
2017-08-02T21:48:05.940Z,52.90
2017-08-02T21:50:33.405Z,51.00
2017-08-02T21:53:00.862Z,49.00
2017-08-02T21:55:28.333Z,47.60
2017-08-02T21:57:55.794Z,46.50
2017-08-02T22:00:23.272Z,45.70
2017-08-02T22:02:50.732Z,45.20
2017-08-02T22:05:18.206Z,44.70
2017-08-02T22:07:45.663Z,44.40
2017-08-02T22:10:13.155Z,44.10
2017-08-02T22:12:40.621Z,43.80
2017-08-02T22:15:08.077Z,43.60
2017-08-02T22:17:35.537Z,43.60
2017-08-02T22:20:02.994Z,43.50
2017-08-02T22:22:30.475Z,43.30
2017-08-02T22:24:57.992Z,43.10
2017-08-02T22:27:26.213Z,43.50
2017-08-02T22:29:53.680Z,42.90
2017-08-02T22:32:21.154Z,42.80
2017-08-02T22:34:48.620Z,42.90
2017-08-02T22:37:16.086Z,42.80
2017-08-02T22:39:43.567Z,42.90
2017-08-02T22:42:11.057Z,42.80
2017-08-02T22:44:38.531Z,42.90
2017-08-02T22:47:05.984Z,42.90
2017-08-02T22:49:33.479Z,43.00
2017-08-02T22:52:01.700Z,43.10
2017-08-02T22:54:29.180Z,43.00
2017-08-02T22:56:56.639Z,43.10
2017-08-02T22:59:24.118Z,43.10
2017-08-02T23:01:51.576Z,43.10
2017-08-02T23:04:19.066Z,43.20
2017-08-02T23:06:46.524Z,43.20
2017-08-02T23:09:14.038Z,43.20
2017-08-02T23:11:41.493Z,43.30
2017-08-02T23:14:08.975Z,43.30
2017-08-02T23:16:36.442Z,43.40
2017-08-02T23:19:03.909Z,43.40
2017-08-02T23:21:31.391Z,43.40
2017-08-02T23:23:58.869Z,43.40
2017-08-02T23:26:26.332Z,43.40
2017-08-02T23:28:53.773Z,43.40
2017-08-02T23:31:21.247Z,43.30
2017-08-02T23:33:48.711Z,43.50
2017-08-02T23:36:16.176Z,43.40
2017-08-02T23:38:43.629Z,43.40
2017-08-02T23:41:11.099Z,43.40
2017-08-02T23:43:38.565Z,43.50
2017-08-02T23:46:06.032Z,43.40
2017-08-02T23:48:34.265Z,43.50
2017-08-02T23:51:01.738Z,43.50
2017-08-02T23:53:29.242Z,43.50
2017-08-02T23:55:56.714Z,43.50
2017-08-02T23:58:24.195Z,43.60
